createdAt,value
2019-02-06T00:02:00.356Z,10.10
2019-02-06T00:04:28.764Z,10.00
2019-02-06T00:06:57.220Z,10.00
2019-02-06T00:09:25.690Z,9.90
2019-02-06T00:11:54.248Z,9.70
2019-02-06T00:14:32.430Z,9.70
2019-02-06T00:17:01.555Z,9.60
2019-02-06T00:19:30.382Z,9.70
2019-02-06T00:21:59.217Z,9.70
2019-02-06T00:24:28.150Z,9.60
2019-02-06T00:26:56.531Z,9.70
2019-02-06T00:29:25.287Z,9.60
2019-02-06T00:31:53.702Z,9.60
2019-02-06T00:34:43.136Z,9.60
2019-02-06T00:37:11.707Z,9.60
2019-02-06T00:39:40.136Z,9.70
2019-02-06T00:42:08.595Z,9.80
2019-02-06T00:44:37.454Z,9.90
2019-02-06T00:47:06.037Z,9.90
2019-02-06T00:49:34.644Z,9.70
2019-02-06T00:52:03.202Z,9.90
2019-02-06T00:54:31.807Z,9.90
2019-02-06T00:57:00.431Z,10.00
2019-02-06T00:59:29.322Z,10.00
2019-02-06T01:01:57.806Z,9.90
2019-02-06T01:04:26.422Z,9.90
2019-02-06T01:06:54.892Z,9.90
2019-02-06T01:09:23.421Z,10.00
2019-02-06T01:11:51.896Z,10.00
2019-02-06T01:14:20.428Z,10.00
2019-02-06T01:16:49.341Z,9.90
2019-02-06T01:19:18.044Z,9.90
2019-02-06T01:21:46.575Z,9.90
2019-02-06T01:24:15.033Z,9.70
2019-02-06T01:26:43.746Z,9.80
2019-02-06T01:29:12.214Z,9.90
2019-02-06T01:31:40.731Z,9.80
2019-02-06T01:34:09.612Z,9.90
2019-02-06T01:36:38.059Z,9.80
2019-02-06T01:39:11.480Z,9.70
2019-02-06T01:41:39.963Z,9.50
2019-02-06T01:44:08.457Z,9.60
2019-02-06T01:46:37.244Z,9.70
2019-02-06T01:49:06.003Z,9.80
2019-02-06T01:51:34.581Z,9.70
2019-02-06T01:54:03.231Z,9.80
2019-02-06T01:56:31.972Z,9.70
2019-02-06T01:59:00.574Z,9.80
2019-02-06T02:01:29.432Z,9.70
2019-02-06T02:03:58.157Z,9.80
2019-02-06T02:06:26.521Z,9.80
2019-02-06T02:08:57.271Z,9.80
2019-02-06T02:11:25.838Z,9.90
2019-02-06T02:13:54.302Z,10.00
2019-02-06T02:16:22.901Z,10.10
2019-02-06T02:18:51.447Z,10.00
2019-02-06T02:21:20.383Z,10.10
2019-02-06T02:23:48.864Z,10.00
2019-02-06T02:26:17.175Z,10.00
2019-02-06T02:28:45.575Z,9.90
2019-02-06T02:31:14.398Z,9.90
2019-02-06T02:33:42.730Z,10.00
2019-02-06T02:36:15.846Z,9.90
2019-02-06T02:38:41.554Z,9.90
2019-02-06T02:41:09.857Z,9.80
2019-02-06T02:43:38.543Z,9.70
2019-02-06T02:46:07.430Z,9.70
2019-02-06T02:48:35.912Z,9.60
2019-02-06T02:51:04.669Z,9.70
2019-02-06T02:53:33.691Z,9.70
2019-02-06T02:56:02.262Z,9.60
2019-02-06T02:58:30.663Z,9.60
2019-02-06T03:01:36.611Z,9.60
2019-02-06T03:04:16.663Z,9.50
2019-02-06T03:06:45.302Z,9.50
2019-02-06T03:09:13.829Z,9.50
2019-02-06T03:11:42.392Z,9.30
2019-02-06T03:14:11.249Z,9.40
2019-02-06T03:16:39.755Z,9.50
2019-02-06T03:19:08.199Z,9.30
2019-02-06T03:21:36.954Z,9.20
2019-02-06T03:24:05.524Z,9.30
2019-02-06T03:26:33.958Z,9.30
2019-02-06T03:29:02.666Z,9.40
2019-02-06T03:31:31.293Z,9.50
2019-02-06T03:33:59.760Z,9.50
2019-02-06T03:36:39.567Z,9.50
2019-02-06T03:38:58.754Z,9.60
2019-02-06T03:41:27.426Z,9.60
2019-02-06T03:43:55.979Z,9.60
2019-02-06T03:46:24.897Z,9.70
2019-02-06T03:48:53.366Z,9.70
2019-02-06T03:51:21.854Z,9.60
2019-02-06T03:53:50.551Z,9.40
2019-02-06T03:56:19.006Z,9.50
2019-02-06T03:58:47.458Z,9.50
2019-02-06T04:01:15.982Z,9.40
2019-02-06T04:03:44.747Z,9.30
2019-02-06T04:06:13.485Z,9.40
2019-02-06T04:08:42.021Z,9.50
2019-02-06T04:11:10.549Z,9.50
2019-02-06T04:13:39.202Z,9.50
2019-02-06T04:16:07.682Z,9.60
2019-02-06T04:18:36.098Z,9.60
2019-02-06T04:21:04.624Z,9.80
2019-02-06T04:23:33.020Z,9.80
2019-02-06T04:26:01.635Z,9.70
2019-02-06T04:28:30.217Z,9.70
2019-02-06T04:30:58.598Z,9.70
2019-02-06T04:33:27.182Z,9.80
2019-02-06T04:35:56.130Z,9.80
2019-02-06T04:38:24.653Z,9.60
2019-02-06T04:40:53.180Z,9.70
2019-02-06T04:43:22.895Z,9.70
2019-02-06T04:45:51.282Z,9.70
2019-02-06T04:48:19.802Z,9.80
2019-02-06T04:50:48.343Z,9.90
2019-02-06T04:53:16.827Z,9.90
2019-02-06T04:55:45.450Z,9.90
2019-02-06T04:58:14.088Z,9.90
2019-02-06T05:00:42.456Z,9.90
2019-02-06T05:03:10.994Z,9.80
2019-02-06T05:05:39.663Z,9.80
2019-02-06T05:08:08.773Z,9.80
2019-02-06T05:10:37.232Z,9.70
2019-02-06T05:13:06.043Z,9.80
2019-02-06T05:15:34.478Z,9.70
2019-02-06T05:18:02.975Z,9.80
2019-02-06T05:20:37.575Z,9.70
2019-02-06T05:23:07.742Z,9.70
2019-02-06T05:25:36.189Z,9.70
2019-02-06T05:28:05.449Z,9.60
2019-02-06T05:30:34.047Z,9.70
2019-02-06T05:33:02.531Z,9.70
2019-02-06T05:35:31.065Z,9.70
2019-02-06T05:38:00.232Z,9.70
2019-02-06T05:40:29.051Z,9.70
2019-02-06T05:42:58.807Z,9.70
2019-02-06T05:45:27.308Z,9.70
2019-02-06T05:47:55.825Z,9.70
2019-02-06T05:50:24.538Z,9.70
2019-02-06T05:52:52.987Z,9.70
2019-02-06T05:55:21.660Z,9.60
2019-02-06T05:57:50.115Z,9.50
2019-02-06T06:00:26.120Z,9.60
2019-02-06T06:02:54.697Z,9.50
2019-02-06T06:05:23.197Z,9.70
2019-02-06T06:07:51.860Z,9.70
2019-02-06T06:10:20.542Z,9.70
2019-02-06T06:12:49.282Z,9.70
2019-02-06T06:15:18.604Z,9.70
2019-02-06T06:17:47.500Z,9.80
2019-02-06T06:20:16.922Z,9.70
2019-02-06T06:22:45.315Z,9.60
2019-02-06T06:25:14.755Z,9.60
2019-02-06T06:27:43.796Z,9.70
2019-02-06T06:30:14.534Z,9.70
2019-02-06T06:32:43.201Z,9.60
2019-02-06T06:35:11.924Z,9.60
2019-02-06T06:37:41.512Z,9.70
2019-02-06T06:40:13.313Z,9.70
2019-02-06T06:42:42.157Z,9.80
2019-02-06T06:45:30.091Z,9.90
2019-02-06T06:47:58.672Z,9.70
2019-02-06T06:50:27.172Z,9.90
2019-02-06T06:52:56.734Z,9.80
2019-02-06T06:55:25.368Z,10.00
2019-02-06T06:57:53.926Z,10.00
2019-02-06T07:00:24.674Z,10.00
2019-02-06T07:02:52.806Z,10.00
2019-02-06T07:05:21.518Z,10.00
2019-02-06T07:07:52.009Z,10.00
2019-02-06T07:10:21.320Z,9.90
2019-02-06T07:12:49.722Z,9.90
2019-02-06T07:15:20.306Z,9.90
2019-02-06T07:17:48.620Z,9.90
2019-02-06T07:20:17.472Z,10.20
2019-02-06T07:22:45.998Z,10.40
2019-02-06T07:25:16.142Z,10.40
2019-02-06T07:27:44.413Z,10.30
2019-02-06T07:30:18.771Z,10.50
2019-02-06T07:32:46.929Z,10.60
2019-02-06T07:35:15.179Z,10.70
2019-02-06T07:37:43.482Z,10.70
2019-02-06T07:40:11.829Z,10.70
2019-02-06T07:42:39.921Z,10.90
2019-02-06T07:45:09.226Z,10.90
2019-02-06T07:47:37.303Z,10.90
2019-02-06T07:50:07.939Z,11.00
2019-02-06T07:52:36.169Z,11.10
2019-02-06T07:55:05.411Z,11.00
2019-02-06T07:57:34.557Z,11.20
2019-02-06T08:00:04.468Z,11.30
2019-02-06T08:02:34.385Z,11.20
2019-02-06T08:05:03.529Z,11.30
2019-02-06T08:07:32.089Z,11.50
2019-02-06T08:10:00.746Z,11.80
2019-02-06T08:12:29.317Z,11.90
2019-02-06T08:14:57.800Z,12.00
2019-02-06T08:17:26.494Z,12.00
2019-02-06T08:19:55.181Z,12.00
2019-02-06T08:22:23.867Z,12.10
2019-02-06T08:24:52.579Z,12.10
2019-02-06T08:27:21.063Z,12.20
2019-02-06T08:29:49.849Z,12.30
2019-02-06T08:32:18.438Z,12.60
2019-02-06T08:34:46.982Z,12.60
2019-02-06T08:37:15.168Z,12.80
2019-02-06T08:39:43.689Z,12.70
2019-02-06T08:42:11.734Z,13.10
2019-02-06T08:44:40.180Z,13.40
2019-02-06T08:47:08.306Z,13.40
2019-02-06T08:49:36.372Z,13.50
2019-02-06T08:52:04.810Z,13.60
2019-02-06T08:54:33.712Z,13.80
2019-02-06T08:57:02.283Z,14.00
2019-02-06T08:59:30.947Z,14.30
2019-02-06T09:01:59.960Z,14.30
2019-02-06T09:04:28.497Z,14.70
2019-02-06T09:06:57.024Z,14.80
2019-02-06T09:09:25.503Z,14.50
2019-02-06T09:11:54.067Z,14.60
2019-02-06T09:14:22.912Z,15.00
2019-02-06T09:16:51.353Z,15.50
2019-02-06T09:19:19.834Z,15.60
2019-02-06T09:21:48.455Z,15.50
2019-02-06T09:24:16.867Z,15.80
2019-02-06T09:26:45.379Z,16.10
2019-02-06T09:29:14.148Z,16.10
2019-02-06T09:31:42.527Z,16.00
2019-02-06T09:34:11.639Z,16.00
2019-02-06T09:36:40.196Z,16.10
2019-02-06T09:39:11.901Z,15.90
2019-02-06T09:41:40.458Z,15.80
2019-02-06T09:44:08.710Z,16.20
2019-02-06T09:46:37.381Z,16.20
2019-02-06T09:49:05.680Z,16.00
2019-02-06T09:51:34.692Z,16.00
2019-02-06T09:54:03.373Z,15.90
2019-02-06T09:56:32.031Z,15.80
2019-02-06T09:59:00.796Z,15.80
2019-02-06T10:01:29.268Z,15.90
2019-02-06T10:03:57.881Z,15.70
2019-02-06T10:06:26.134Z,15.80
2019-02-06T10:08:54.515Z,15.80
2019-02-06T10:11:23.209Z,16.10
2019-02-06T10:13:54.132Z,16.40
2019-02-06T10:16:22.768Z,16.40
2019-02-06T10:18:51.523Z,15.80
2019-02-06T10:21:20.287Z,15.90
2019-02-06T10:23:48.644Z,15.70
2019-02-06T10:26:17.231Z,15.90
2019-02-06T10:28:45.784Z,15.70
2019-02-06T10:31:14.234Z,15.60
2019-02-06T10:33:42.747Z,15.80
2019-02-06T10:36:11.537Z,15.40
2019-02-06T10:38:39.975Z,15.60
2019-02-06T10:41:08.302Z,15.80
2019-02-06T10:43:36.849Z,15.90
2019-02-06T10:46:05.358Z,15.90
2019-02-06T10:48:33.534Z,16.00
2019-02-06T10:51:02.084Z,15.90
2019-02-06T10:53:30.334Z,16.00
2019-02-06T10:55:59.295Z,16.00
2019-02-06T10:58:28.137Z,16.10
2019-02-06T11:00:59.051Z,16.20
2019-02-06T11:03:27.500Z,16.10
2019-02-06T11:05:56.583Z,16.30
2019-02-06T11:08:25.344Z,16.60
2019-02-06T11:10:56.098Z,16.80
2019-02-06T11:13:24.620Z,16.80
2019-02-06T11:15:53.333Z,17.00
2019-02-06T11:18:22.017Z,16.80
2019-02-06T11:20:50.563Z,16.70
2019-02-06T11:36:24.594Z,16.50
2019-02-06T11:38:53.040Z,15.50
2019-02-06T11:41:21.519Z,15.50
2019-02-06T11:43:50.533Z,15.50
2019-02-06T11:46:19.027Z,15.20
2019-02-06T11:48:47.471Z,15.00
2019-02-06T11:51:16.313Z,15.00
2019-02-06T11:53:44.798Z,14.80
2019-02-06T11:56:13.159Z,14.90
2019-02-06T11:58:41.523Z,15.10
2019-02-06T12:01:38.136Z,15.20
2019-02-06T12:04:06.397Z,15.10
2019-02-06T12:06:34.799Z,15.10
2019-02-06T12:09:05.729Z,15.30
2019-02-06T12:11:33.847Z,15.10
2019-02-06T12:14:02.486Z,15.20
2019-02-06T12:16:31.709Z,15.10
2019-02-06T12:18:59.940Z,15.30
2019-02-06T12:21:28.118Z,15.40
2019-02-06T12:23:56.185Z,15.40
2019-02-06T12:26:24.784Z,15.40
2019-02-06T12:28:52.898Z,15.30
2019-02-06T12:31:21.338Z,15.20
2019-02-06T12:33:50.609Z,15.30
2019-02-06T12:36:19.191Z,15.40
2019-02-06T12:38:53.506Z,15.30
2019-02-06T12:41:18.049Z,15.40
2019-02-06T12:43:46.464Z,15.40
2019-02-06T12:46:14.985Z,15.40
2019-02-06T12:48:44.018Z,15.20
2019-02-06T12:51:12.568Z,15.20
2019-02-06T12:53:41.187Z,15.20
2019-02-06T12:56:09.942Z,15.10
2019-02-06T12:58:38.219Z,15.10
2019-02-06T13:01:07.152Z,15.30
2019-02-06T13:03:35.606Z,15.30
2019-02-06T13:06:04.347Z,15.50
2019-02-06T13:08:32.583Z,15.40
2019-02-06T13:11:00.988Z,15.70
2019-02-06T13:13:29.500Z,15.40
2019-02-06T13:15:58.183Z,15.20
2019-02-06T13:18:26.429Z,15.20
2019-02-06T13:20:54.583Z,15.20
2019-02-06T13:23:23.214Z,15.30
2019-02-06T13:25:51.556Z,15.10
2019-02-06T13:28:20.056Z,15.30
2019-02-06T13:30:48.555Z,15.30
2019-02-06T13:33:17.416Z,15.40
2019-02-06T13:35:45.899Z,15.40
2019-02-06T13:38:14.592Z,15.60
2019-02-06T13:40:45.823Z,15.70
2019-02-06T13:43:13.680Z,15.90
2019-02-06T13:45:44.211Z,15.90
2019-02-06T13:48:13.070Z,16.10
2019-02-06T13:50:41.925Z,16.00
2019-02-06T13:53:10.853Z,16.20
2019-02-06T13:55:39.604Z,16.20
2019-02-06T13:58:19.177Z,16.20
2019-02-06T14:00:39.880Z,16.30
2019-02-06T14:03:08.803Z,16.30
2019-02-06T14:05:37.738Z,16.30
2019-02-06T14:08:08.825Z,16.00
2019-02-06T14:10:37.551Z,15.80
2019-02-06T14:13:06.496Z,15.60
2019-02-06T14:15:37.449Z,15.50
2019-02-06T14:18:06.782Z,15.50
2019-02-06T14:20:35.434Z,15.70
2019-02-06T14:23:07.375Z,15.40
2019-02-06T14:25:57.207Z,15.40
2019-02-06T14:29:06.854Z,15.40
2019-02-06T14:32:32.258Z,15.40
2019-02-06T14:35:38.057Z,15.20
2019-02-06T14:38:56.884Z,14.90
2019-02-06T14:42:09.704Z,15.20
2019-02-06T14:45:33.769Z,15.10
2019-02-06T14:48:18.133Z,15.10
2019-02-06T14:50:56.659Z,15.10
2019-02-06T14:54:15.209Z,14.90
2019-02-06T14:57:37.554Z,15.00
2019-02-06T15:00:20.750Z,15.00
2019-02-06T15:03:27.521Z,15.00
2019-02-06T15:06:20.410Z,15.10
2019-02-06T15:09:36.710Z,15.00
2019-02-06T15:12:41.753Z,15.10
2019-02-06T15:15:46.511Z,15.20
2019-02-06T15:19:09.025Z,15.00
2019-02-06T15:22:13.859Z,15.20
2019-02-06T15:25:01.696Z,15.10
2019-02-06T15:27:57.619Z,15.20
2019-02-06T15:30:51.695Z,14.90
2019-02-06T15:33:53.534Z,15.00
2019-02-06T15:36:35.078Z,14.80
2019-02-06T15:39:41.310Z,14.90
2019-02-06T15:42:58.707Z,14.80
2019-02-06T15:45:37.119Z,14.50
2019-02-06T15:48:56.423Z,14.50
2019-02-06T15:52:01.563Z,14.40
2019-02-06T15:55:05.475Z,14.40
2019-02-06T15:58:01.830Z,14.40
2019-02-06T16:01:23.230Z,14.30
2019-02-06T16:04:44.220Z,14.30
2019-02-06T16:07:54.809Z,14.40
2019-02-06T16:11:03.346Z,14.20
2019-02-06T16:14:09.180Z,14.10
2019-02-06T16:17:34.392Z,14.20
2019-02-06T16:20:27.551Z,14.20
2019-02-06T16:23:13.821Z,14.20
2019-02-06T16:26:11.618Z,14.20
2019-02-06T16:29:15.423Z,14.30
2019-02-06T16:32:16.122Z,14.30
2019-02-06T16:35:34.510Z,14.40
2019-02-06T16:38:35.758Z,14.30
2019-02-06T16:41:35.441Z,14.40
2019-02-06T16:44:23.691Z,14.20
2019-02-06T16:47:44.649Z,14.20
2019-02-06T16:50:13.486Z,14.00
2019-02-06T16:53:25.617Z,14.10
2019-02-06T16:56:40.278Z,14.10
2019-02-06T16:59:33.950Z,14.10
2019-02-06T17:02:25.843Z,14.00
2019-02-06T17:05:30.974Z,14.00
2019-02-06T17:08:30.362Z,14.00
2019-02-06T17:11:34.235Z,14.10
2019-02-06T17:14:26.780Z,13.90
2019-02-06T17:17:48.987Z,13.90
2019-02-06T17:21:00.618Z,13.90
2019-02-06T17:24:02.451Z,13.90
2019-02-06T17:27:14.780Z,13.90
2019-02-06T17:30:26.373Z,13.80
2019-02-06T17:33:33.866Z,14.00
2019-02-06T17:36:32.656Z,13.90
2019-02-06T17:39:40.918Z,13.60
2019-02-06T17:42:31.815Z,13.70
2019-02-06T17:45:49.820Z,13.70
2019-02-06T17:48:49.940Z,13.80
2019-02-06T17:52:27.540Z,13.80
2019-02-06T17:55:20.707Z,13.80
2019-02-06T17:57:51.175Z,13.80
2019-02-06T18:00:43.339Z,13.60
2019-02-06T18:03:33.006Z,13.60
2019-02-06T18:06:03.364Z,13.50
2019-02-06T18:08:31.463Z,13.50
2019-02-06T18:10:59.994Z,13.50
2019-02-06T18:13:28.702Z,13.60
2019-02-06T18:15:57.259Z,13.60
2019-02-06T18:18:26.021Z,13.60
2019-02-06T18:20:54.657Z,13.40
2019-02-06T18:23:23.180Z,13.50
2019-02-06T18:25:53.704Z,13.50
2019-02-06T18:28:22.039Z,13.40
2019-02-06T18:30:50.573Z,13.60
2019-02-06T18:33:21.084Z,13.50
2019-02-06T18:35:49.636Z,13.60
2019-02-06T18:38:17.769Z,13.50
2019-02-06T18:40:47.731Z,13.50
2019-02-06T18:43:16.467Z,13.60
2019-02-06T18:45:45.194Z,13.60
2019-02-06T18:48:13.307Z,13.70
2019-02-06T18:50:42.023Z,13.70
2019-02-06T18:53:10.598Z,13.80
2019-02-06T18:55:39.301Z,13.70
2019-02-06T18:58:09.262Z,13.70
2019-02-06T19:00:37.983Z,13.60
2019-02-06T19:03:13.262Z,13.50
2019-02-06T19:05:41.968Z,13.60
2019-02-06T19:08:10.611Z,13.50
2019-02-06T19:10:39.420Z,13.30
2019-02-06T19:13:08.291Z,13.20
2019-02-06T19:15:36.911Z,13.10
2019-02-06T19:18:09.515Z,12.90
2019-02-06T19:20:38.206Z,13.00
2019-02-06T19:23:06.737Z,12.90
2019-02-06T19:25:35.463Z,12.80
2019-02-06T19:28:03.892Z,12.70
2019-02-06T19:30:34.476Z,12.70
2019-02-06T19:33:03.249Z,12.90
2019-02-06T19:35:31.870Z,12.90
2019-02-06T19:38:00.293Z,12.90
2019-02-06T19:40:28.967Z,12.80
2019-02-06T19:43:00.457Z,12.90
2019-02-06T19:45:28.024Z,12.90
2019-02-06T19:47:56.973Z,13.00
2019-02-06T19:50:27.755Z,13.00
2019-02-06T19:52:56.436Z,13.10
2019-02-06T19:55:25.058Z,12.90
2019-02-06T19:57:53.861Z,12.80
2019-02-06T20:00:26.467Z,12.80
2019-02-06T20:02:55.324Z,12.80
2019-02-06T20:05:24.702Z,12.80
2019-02-06T20:07:54.035Z,12.90
2019-02-06T20:10:25.579Z,12.90
2019-02-06T20:12:55.478Z,12.70
2019-02-06T20:15:25.290Z,12.80
2019-02-06T20:17:56.017Z,12.70
2019-02-06T20:20:26.878Z,12.90
2019-02-06T20:22:57.947Z,12.80
2019-02-06T20:25:28.762Z,12.70
2019-02-06T20:27:59.599Z,12.70
2019-02-06T20:30:30.943Z,12.90
2019-02-06T20:33:01.583Z,13.00
2019-02-06T20:35:32.306Z,13.00
2019-02-06T20:38:03.074Z,13.20
2019-02-06T20:40:35.947Z,13.30
2019-02-06T20:43:06.577Z,13.30
2019-02-06T20:45:37.672Z,13.60
2019-02-06T20:48:08.368Z,13.60
2019-02-06T20:50:39.436Z,13.60
2019-02-06T20:53:09.862Z,13.70
2019-02-06T20:55:39.979Z,13.60
2019-02-06T20:58:10.318Z,13.50
2019-02-06T21:00:40.561Z,13.30
2019-02-06T21:03:10.650Z,13.30
2019-02-06T21:05:40.026Z,13.10
2019-02-06T21:08:09.459Z,13.10
2019-02-06T21:10:38.414Z,13.00
2019-02-06T21:13:07.587Z,13.10
2019-02-06T21:15:36.369Z,13.00
2019-02-06T21:18:05.473Z,12.80
2019-02-06T21:20:34.241Z,12.90
2019-02-06T21:23:03.632Z,12.90
2019-02-06T21:25:32.595Z,12.70
2019-02-06T21:28:01.676Z,12.70
2019-02-06T21:30:32.865Z,12.60
2019-02-06T21:33:02.122Z,12.50
2019-02-06T21:35:30.936Z,12.60
2019-02-06T21:38:00.150Z,12.60
2019-02-06T21:40:30.627Z,12.50
2019-02-06T21:42:59.300Z,12.40
2019-02-06T21:45:28.236Z,12.40
2019-02-06T21:47:57.029Z,12.50
2019-02-06T21:50:25.830Z,12.50
2019-02-06T21:52:54.781Z,12.40
2019-02-06T21:55:23.003Z,12.50
2019-02-06T21:57:51.474Z,12.40
2019-02-06T22:00:22.199Z,12.30
2019-02-06T22:02:50.766Z,12.30
2019-02-06T22:05:19.123Z,12.30
2019-02-06T22:07:48.161Z,12.20
2019-02-06T22:10:17.643Z,12.20
2019-02-06T22:12:46.191Z,12.10
2019-02-06T22:15:20.017Z,12.20
2019-02-06T22:17:48.479Z,12.20
2019-02-06T22:20:17.219Z,12.20
2019-02-06T22:22:46.215Z,12.10
2019-02-06T22:25:15.271Z,12.10
2019-02-06T22:27:43.699Z,12.20
2019-02-06T22:30:15.292Z,12.20
2019-02-06T22:32:43.707Z,12.20
2019-02-06T22:35:12.649Z,12.20
2019-02-06T22:37:41.474Z,12.10
2019-02-06T22:40:12.766Z,12.20
2019-02-06T22:42:43.173Z,12.20
2019-02-06T22:45:16.670Z,12.20
2019-02-06T22:47:45.080Z,12.20
2019-02-06T22:50:14.802Z,12.10
2019-02-06T22:52:43.379Z,12.10
2019-02-06T22:55:11.955Z,12.10
2019-02-06T22:57:40.202Z,12.10
2019-02-06T23:01:03.050Z,12.20
2019-02-06T23:03:37.274Z,12.10
2019-02-06T23:06:07.442Z,11.90
2019-02-06T23:08:36.213Z,11.80
2019-02-06T23:11:05.560Z,11.70
2019-02-06T23:13:34.173Z,11.90
2019-02-06T23:16:03.149Z,11.90
2019-02-06T23:18:31.995Z,11.70
2019-02-06T23:21:00.287Z,11.60
2019-02-06T23:23:28.443Z,11.70
2019-02-06T23:25:56.867Z,11.70
2019-02-06T23:28:24.950Z,11.80
2019-02-06T23:30:52.977Z,11.90
2019-02-06T23:33:21.312Z,11.80
2019-02-06T23:35:49.735Z,11.70
2019-02-06T23:38:17.998Z,11.70
2019-02-06T23:40:46.744Z,11.70
2019-02-06T23:43:15.114Z,11.80
2019-02-06T23:45:43.195Z,11.80
2019-02-06T23:48:11.323Z,11.80
2019-02-06T23:50:39.660Z,11.70
2019-02-06T23:53:08.131Z,11.60
2019-02-06T23:55:36.236Z,11.70
2019-02-06T23:58:05.331Z,11.60
